Main page
METAR-TAF:

METAR-TAF

Airports :

Dresden, Germany

Dresden Airport

latitude: 51-08N, longitude: 013-45E, elevation: 230 m

Current weather observation

The report was made 33 minutes ago, at 08:20 UTC
Wind 6 kt from the West, varying between Southwest and Northwest
Temperature 19°C
Humidity 73%
Pressure 1008 hPa
Visibility 10 km or more
Few clouds at a height of 2000 ft

METAR: EDDC 270820Z 27006KT 230V310 9999 FEW020 19/14 Q1008 NOSIG

Time: 10:53 (08:53 UTC)

Forecast

The report was made 3 hours and 53 minutes ago, at 05:00 UTC
Forecast valid from 27 at 06 UTC to 28 at 06 UTC
Wind 7 kt from the West/Southwest
Visibility 10 km or more
Scattered clouds at a height of 3000 ft
Probability 30% :
Temporary
from 27 at 15 UTC to 27 at 24 UTC
Wind 15 kt from the West/Southwest with gusts up to 25 kt
Broken clouds at a height of 2000 ft, Cumulonimbus.
rain showers

TAF: EDDC 270500Z 2706/2806 25007KT 9999 SCT030 PROB30 TEMPO 2715/2724 25015G25KT SHRA BKN020CB

Weather observations and forecasts of more than 4000 airports (METAR and TAF reports).

The available stations are represented by yellow and red dots on the map.

Hover mouse over dot to see the name of the station.

Then click to see weather observations and forecasts.

To change the map : click on the green buttons with a black cross to zoom in, on the green button with a dash to zoom out, or on the green arrows for adjacent maps.


METAR-TAF: